createdAt,value
2023-05-09T00:00:46.866Z,3.85
2023-05-09T00:03:14.759Z,8.43
2023-05-09T00:05:42.195Z,7.18
2023-05-09T00:08:09.735Z,6.40
2023-05-09T00:10:37.164Z,2.85
2023-05-09T00:13:04.319Z,2.72
2023-05-09T00:15:32.324Z,2.13
2023-05-09T00:17:59.711Z,13.40
2023-05-09T00:20:26.919Z,7.10
2023-05-09T00:22:53.996Z,8.88
2023-05-09T00:25:21.136Z,9.82
2023-05-09T00:27:48.215Z,0.60
2023-05-09T00:30:15.332Z,0.52
2023-05-09T00:32:42.531Z,1.98
2023-05-09T00:35:10.392Z,3.25
2023-05-09T00:37:39.816Z,0.40
2023-05-09T00:40:07.957Z,0.50
2023-05-09T00:42:35.969Z,7.43
2023-05-09T00:45:03.485Z,4.72
2023-05-09T00:47:31.813Z,0.40
2023-05-09T00:49:59.797Z,0.20
2023-05-09T00:52:27.126Z,0.20
2023-05-09T00:54:55.992Z,0.40
2023-05-09T00:57:23.671Z,0.90
2023-05-09T00:59:51.174Z,5.00
2023-05-09T01:02:19.285Z,0.40
2023-05-09T01:04:47.014Z,0.30
2023-05-09T01:07:16.546Z,0.35
2023-05-09T01:10:03.151Z,0.50
2023-05-09T01:12:41.707Z,9.45
2023-05-09T01:15:23.968Z,0.80
2023-05-09T01:18:04.002Z,0.30
2023-05-09T01:20:36.656Z,0.30
2023-05-09T01:23:22.183Z,1.65
2023-05-09T01:26:03.411Z,2.95
2023-05-09T01:28:50.056Z,0.30
2023-05-09T01:31:17.795Z,0.30
2023-05-09T01:33:47.175Z,2.08
2023-05-09T01:36:20.687Z,0.20
2023-05-09T01:38:55.325Z,0.40
2023-05-09T01:41:24.998Z,0.40
2023-05-09T01:43:54.364Z,0.20
2023-05-09T01:46:22.903Z,0.38
2023-05-09T01:48:51.515Z,2.05
2023-05-09T01:51:20.489Z,0.30
2023-05-09T01:53:49.243Z,0.40
2023-05-09T01:56:17.897Z,0.30
2023-05-09T01:58:48.776Z,0.10
2023-05-09T02:01:16.929Z,0.20
2023-05-09T02:03:47.530Z,0.10
2023-05-09T02:06:17.817Z,0.47
2023-05-09T02:08:45.074Z,0.20
2023-05-09T02:11:12.079Z,0.20
2023-05-09T02:13:40.411Z,0.32
2023-05-09T02:16:08.180Z,0.45
2023-05-09T02:18:35.806Z,0.30
2023-05-09T02:21:03.533Z,0.47
2023-05-09T02:23:32.273Z,2.80
2023-05-09T02:25:59.495Z,3.83
2023-05-09T02:28:27.773Z,0.20
2023-05-09T02:30:59.005Z,0.50
2023-05-09T02:33:32.792Z,0.30
2023-05-09T02:36:02.889Z,8.65
2023-05-09T02:38:29.998Z,0.30
2023-05-09T02:40:57.145Z,0.65
2023-05-09T02:43:24.289Z,0.30
2023-05-09T02:45:51.374Z,0.30
2023-05-09T02:48:18.512Z,0.30
2023-05-09T02:50:46.367Z,0.40
2023-05-09T02:53:13.397Z,0.50
2023-05-09T02:55:40.444Z,0.40
2023-05-09T02:58:14.723Z,0.30
2023-05-09T03:00:43.023Z,0.30
2023-05-09T03:03:10.357Z,0.30
2023-05-09T03:05:39.708Z,0.30
2023-05-09T03:08:06.703Z,0.30
2023-05-09T03:10:33.895Z,0.20
2023-05-09T03:13:01.406Z,0.22
2023-05-09T03:15:32.160Z,1.52
2023-05-09T03:17:59.216Z,0.20
2023-05-09T03:20:27.244Z,0.28
2023-05-09T03:22:54.321Z,0.20
2023-05-09T03:25:21.578Z,0.13
2023-05-09T03:27:48.785Z,0.20
2023-05-09T03:30:16.140Z,0.10
2023-05-09T03:32:43.267Z,0.10
2023-05-09T03:35:10.294Z,0.10
2023-05-09T03:37:40.279Z,0.13
2023-05-09T03:40:08.442Z,0.10
2023-05-09T03:42:35.502Z,0.20
2023-05-09T03:45:02.703Z,0.13
2023-05-09T03:47:31.611Z,0.20
2023-05-09T03:49:58.609Z,0.10
2023-05-09T03:52:26.036Z,0.47
2023-05-09T03:54:53.260Z,0.10
2023-05-09T03:57:20.298Z,0.20
2023-05-09T03:59:47.510Z,3.17
2023-05-09T04:02:14.465Z,0.10
2023-05-09T04:04:41.391Z,0.10
2023-05-09T04:07:08.418Z,0.20
2023-05-09T04:09:39.643Z,0.20
2023-05-09T04:12:07.129Z,0.20
2023-05-09T04:14:34.004Z,0.60
2023-05-09T04:17:01.234Z,0.30
2023-05-09T04:19:31.415Z,0.30
2023-05-09T04:21:58.664Z,0.30
2023-05-09T04:24:25.591Z,0.30
2023-05-09T04:26:52.516Z,0.30
2023-05-09T04:29:19.403Z,0.32
2023-05-09T04:31:46.539Z,0.40
2023-05-09T04:34:16.887Z,1.52
2023-05-09T04:36:43.759Z,0.40
2023-05-09T04:39:13.192Z,0.55
2023-05-09T04:41:40.408Z,1.55
2023-05-09T04:44:08.292Z,0.60
2023-05-09T04:46:35.204Z,0.50
2023-05-09T04:49:02.135Z,0.60
2023-05-09T04:51:31.262Z,1.48
2023-05-09T04:53:58.429Z,1.30
2023-05-09T04:56:25.574Z,0.88
2023-05-09T04:58:53.163Z,0.90
2023-05-09T05:01:20.184Z,0.90
2023-05-09T05:03:47.074Z,1.20
2023-05-09T05:06:16.378Z,1.40
2023-05-09T05:08:43.401Z,1.60
2023-05-09T05:11:10.353Z,1.65
2023-05-09T05:13:39.275Z,1.88
2023-05-09T05:16:06.248Z,2.00
2023-05-09T05:18:33.204Z,2.42
2023-05-09T05:21:00.186Z,2.47
2023-05-09T05:23:31.427Z,3.70
2023-05-09T05:25:58.344Z,3.83
2023-05-09T05:28:25.228Z,3.28
2023-05-09T05:30:52.377Z,3.05
2023-05-09T05:33:19.367Z,3.05
2023-05-09T05:35:46.297Z,3.05
2023-05-09T05:38:13.881Z,3.67
2023-05-09T05:40:40.808Z,3.10
2023-05-09T05:43:07.723Z,3.50
2023-05-09T05:45:39.388Z,4.00
2023-05-09T05:48:06.436Z,3.72
2023-05-09T05:50:33.412Z,3.92
2023-05-09T05:53:00.418Z,3.80
2023-05-09T05:55:31.841Z,4.45
2023-05-09T05:57:58.875Z,4.68
2023-05-09T06:00:26.315Z,5.00
2023-05-09T06:02:53.307Z,4.28
2023-05-09T06:05:20.463Z,5.38
2023-05-09T06:07:47.708Z,5.60
2023-05-09T06:10:16.332Z,4.63
2023-05-09T06:12:43.270Z,4.55
2023-05-09T06:15:10.813Z,5.15
2023-05-09T06:17:40.148Z,5.35
2023-05-09T06:20:07.926Z,5.15
2023-05-09T06:22:35.024Z,4.97
2023-05-09T06:25:02.000Z,5.35
2023-05-09T06:27:31.193Z,5.13
2023-05-09T06:29:58.163Z,5.65
2023-05-09T06:32:26.028Z,6.18
2023-05-09T06:34:53.563Z,6.57
2023-05-09T06:37:20.541Z,6.32
2023-05-09T06:39:47.559Z,4.95
2023-05-09T06:42:14.648Z,4.53
2023-05-09T06:44:41.685Z,4.93
2023-05-09T06:47:08.722Z,4.97
2023-05-09T06:49:40.038Z,5.50
2023-05-09T06:52:07.094Z,5.40
2023-05-09T06:54:34.112Z,5.75
2023-05-09T06:57:01.462Z,6.63
2023-05-09T06:59:31.560Z,5.47
2023-05-09T07:01:58.708Z,5.28
2023-05-09T07:04:25.883Z,5.47
2023-05-09T07:06:52.851Z,6.38
2023-05-09T07:09:20.965Z,5.72
2023-05-09T07:11:48.040Z,5.22
2023-05-09T07:14:15.112Z,5.55
2023-05-09T07:16:42.223Z,5.40
2023-05-09T07:19:09.287Z,5.45
2023-05-09T07:21:39.547Z,5.55
2023-05-09T07:24:07.436Z,5.20
2023-05-09T07:26:36.009Z,5.80
2023-05-09T07:29:03.113Z,5.43
2023-05-09T07:31:32.788Z,5.10
2023-05-09T07:34:01.688Z,6.00
2023-05-09T07:36:28.992Z,5.55
2023-05-09T07:38:56.320Z,5.53
2023-05-09T07:41:23.524Z,5.57
2023-05-09T07:43:50.709Z,5.43
2023-05-09T07:46:17.905Z,5.47
2023-05-09T07:48:45.198Z,5.22
2023-05-09T07:51:12.430Z,4.93
2023-05-09T07:53:40.577Z,5.32
2023-05-09T07:56:08.254Z,5.30
2023-05-09T07:58:35.488Z,5.63
2023-05-09T08:01:02.548Z,4.63
2023-05-09T08:03:32.024Z,5.47
2023-05-09T08:05:59.448Z,4.95
2023-05-09T08:08:27.524Z,4.07
2023-05-09T08:10:54.594Z,4.70
2023-05-09T08:13:22.718Z,4.43
2023-05-09T08:15:50.232Z,4.18
2023-05-09T08:18:17.349Z,3.95
2023-05-09T08:20:44.649Z,3.95
2023-05-09T08:23:12.083Z,3.90
2023-05-09T08:25:40.294Z,3.67
2023-05-09T08:28:07.386Z,3.58
2023-05-09T08:30:34.496Z,10.73
2023-05-09T08:33:01.617Z,5.78
2023-05-09T08:35:31.354Z,4.45
2023-05-09T08:37:58.862Z,3.40
2023-05-09T08:40:26.028Z,3.60
2023-05-09T08:42:53.768Z,3.30
2023-05-09T08:45:29.978Z,3.35
2023-05-09T08:47:57.732Z,3.45
2023-05-09T08:50:25.959Z,3.60
2023-05-09T08:52:53.975Z,3.22
2023-05-09T08:55:21.788Z,3.13
2023-05-09T08:57:50.099Z,2.85
2023-05-09T09:00:21.188Z,2.42
2023-05-09T09:02:49.585Z,2.30
2023-05-09T09:05:39.453Z,2.95
2023-05-09T09:08:06.024Z,1.95
2023-05-09T09:10:34.174Z,1.48
2023-05-09T09:13:05.252Z,1.67
2023-05-09T09:15:36.824Z,1.95
2023-05-09T09:18:09.549Z,2.05
2023-05-09T09:23:11.422Z,1.20
2023-05-09T09:25:40.267Z,1.85
2023-05-09T09:28:07.400Z,1.50
2023-05-09T09:30:34.620Z,1.35
2023-05-09T09:33:01.924Z,1.00
2023-05-09T09:35:38.533Z,1.13
2023-05-09T09:38:06.856Z,1.15
2023-05-09T09:40:33.834Z,1.10
2023-05-09T09:43:00.872Z,0.85
2023-05-09T09:45:33.081Z,1.10
2023-05-09T09:48:07.691Z,0.80
2023-05-09T09:50:34.922Z,0.73
2023-05-09T09:53:02.031Z,0.98
2023-05-09T09:55:32.051Z,0.90
2023-05-09T09:57:59.270Z,0.90
2023-05-09T10:00:28.796Z,0.70
2023-05-09T10:02:58.058Z,0.50
2023-05-09T10:05:32.187Z,0.50
2023-05-09T10:08:01.411Z,0.70
2023-05-09T10:10:30.646Z,0.65
2023-05-09T10:13:00.958Z,0.68
2023-05-09T10:15:41.355Z,0.60
2023-05-09T10:18:15.367Z,0.40
2023-05-09T10:20:44.632Z,0.50
2023-05-09T10:23:13.928Z,0.50
2023-05-09T10:25:48.356Z,0.50
2023-05-09T10:28:19.371Z,0.60
2023-05-09T10:30:49.749Z,0.50
2023-05-09T10:33:21.891Z,0.60
2023-05-09T10:35:50.852Z,1.05
2023-05-09T10:38:19.285Z,0.68
2023-05-09T10:40:48.610Z,0.70
2023-05-09T10:43:16.398Z,0.50
2023-05-09T10:45:44.922Z,0.52
2023-05-09T10:48:12.313Z,0.77
2023-05-09T10:50:40.754Z,0.80
2023-05-09T10:53:09.215Z,0.70
2023-05-09T10:55:38.446Z,0.60
2023-05-09T10:58:24.605Z,0.50
2023-05-09T11:00:54.663Z,0.80
2023-05-09T11:03:23.988Z,0.80
2023-05-09T11:05:54.188Z,0.68
2023-05-09T11:08:30.929Z,0.60
2023-05-09T11:11:01.115Z,0.82
2023-05-09T11:13:40.146Z,0.63
2023-05-09T11:16:12.091Z,0.60
2023-05-09T11:18:52.365Z,0.70
2023-05-09T11:21:20.847Z,0.60
2023-05-09T11:23:48.892Z,0.93
2023-05-09T11:26:17.022Z,0.70
2023-05-09T11:28:53.045Z,0.70
2023-05-09T11:31:20.713Z,0.75
2023-05-09T11:33:55.509Z,0.73
2023-05-09T11:36:30.651Z,1.20
2023-05-09T11:39:05.901Z,0.82
2023-05-09T11:41:46.282Z,0.70
2023-05-09T11:44:18.651Z,1.00
2023-05-09T11:46:47.694Z,1.20
2023-05-09T11:49:15.656Z,0.90
2023-05-09T11:51:43.137Z,0.90
2023-05-09T11:54:11.731Z,0.93
2023-05-09T11:56:40.929Z,1.17
2023-05-09T11:59:08.851Z,1.13
2023-05-09T12:01:39.608Z,1.20
2023-05-09T12:04:08.844Z,1.10
2023-05-09T12:06:37.525Z,0.80
2023-05-09T12:09:04.846Z,1.00
2023-05-09T12:11:32.762Z,0.73
2023-05-09T12:13:59.790Z,0.70
2023-05-09T12:16:27.042Z,0.80
2023-05-09T12:18:54.165Z,0.68
2023-05-09T12:21:22.190Z,0.80
2023-05-09T12:23:51.716Z,1.08
2023-05-09T12:26:19.479Z,0.90
2023-05-09T12:28:48.081Z,1.00
2023-05-09T12:31:18.091Z,0.70
2023-05-09T12:33:45.474Z,1.00
2023-05-09T12:36:14.123Z,0.80
2023-05-09T12:38:41.241Z,0.70
2023-05-09T12:41:30.828Z,1.00
2023-05-09T12:43:59.748Z,0.80
2023-05-09T12:46:27.115Z,0.60
2023-05-09T12:48:54.667Z,0.90
2023-05-09T12:51:22.548Z,0.70
2023-05-09T12:53:50.331Z,0.60
2023-05-09T12:56:21.162Z,0.50
2023-05-09T12:58:51.557Z,1.05
2023-05-09T13:01:20.219Z,0.77
2023-05-09T13:04:03.294Z,0.70
2023-05-09T13:06:31.178Z,0.60
2023-05-09T13:09:00.762Z,0.70
2023-05-09T13:11:31.764Z,1.13
2023-05-09T13:13:58.982Z,0.60
2023-05-09T13:16:26.164Z,0.63
2023-05-09T13:18:53.280Z,1.70
2023-05-09T13:21:20.584Z,0.75
2023-05-09T13:23:49.754Z,0.70
2023-05-09T13:26:17.022Z,0.70
2023-05-09T13:28:44.033Z,0.77
2023-05-09T13:31:11.322Z,0.70
2023-05-09T13:33:40.682Z,0.70
2023-05-09T13:36:07.845Z,0.70
2023-05-09T13:38:39.032Z,0.63
2023-05-09T13:41:07.334Z,0.73
2023-05-09T13:43:34.884Z,0.75
2023-05-09T13:46:01.949Z,0.90
2023-05-09T13:48:29.393Z,1.13
2023-05-09T13:50:58.075Z,1.02
2023-05-09T13:53:25.199Z,1.35
2023-05-09T13:55:52.420Z,1.15
2023-05-09T13:58:19.683Z,1.42
2023-05-09T14:00:46.762Z,0.95
2023-05-09T14:03:13.743Z,1.20
2023-05-09T14:05:40.912Z,0.93
2023-05-09T14:08:08.324Z,1.30
2023-05-09T14:10:35.444Z,1.20
2023-05-09T14:13:02.673Z,1.20
2023-05-09T14:15:31.749Z,1.15
2023-05-09T14:17:59.010Z,2.05
2023-05-09T14:20:26.230Z,1.15
2023-05-09T14:22:55.916Z,1.00
2023-05-09T14:25:23.175Z,1.50
2023-05-09T14:27:50.184Z,1.27
2023-05-09T14:30:17.441Z,1.20
2023-05-09T14:32:44.630Z,0.90
2023-05-09T14:35:15.268Z,0.90
2023-05-09T14:37:42.463Z,0.90
2023-05-09T14:40:10.283Z,1.10
2023-05-09T14:42:37.431Z,0.82
2023-05-09T14:45:05.789Z,0.90
2023-05-09T14:47:34.080Z,0.70
2023-05-09T14:50:01.733Z,0.70
2023-05-09T14:52:29.308Z,0.95
2023-05-09T14:54:56.416Z,0.70
2023-05-09T14:57:23.763Z,0.70
2023-05-09T14:59:50.798Z,0.60
2023-05-09T15:02:17.958Z,0.90
2023-05-09T15:04:45.468Z,0.77
2023-05-09T15:07:12.985Z,0.70
2023-05-09T15:09:40.509Z,0.85
2023-05-09T15:12:07.765Z,0.73
2023-05-09T15:14:34.885Z,0.80
2023-05-09T15:17:04.662Z,0.70
2023-05-09T15:19:32.878Z,0.90
2023-05-09T15:22:00.842Z,1.00
2023-05-09T15:24:28.080Z,1.50
2023-05-09T15:26:55.143Z,0.82
2023-05-09T15:29:22.533Z,0.90
2023-05-09T15:31:49.677Z,1.10
2023-05-09T15:34:18.510Z,1.00
2023-05-09T15:36:45.690Z,1.05
2023-05-09T15:39:13.008Z,0.70
2023-05-09T15:41:40.877Z,1.52
2023-05-09T15:44:08.638Z,1.50
2023-05-09T15:46:35.933Z,0.98
2023-05-09T15:49:03.786Z,0.90
2023-05-09T15:51:33.950Z,0.88
2023-05-09T15:54:01.187Z,0.70
2023-05-09T15:56:28.216Z,0.60
2023-05-09T15:58:55.507Z,0.50
2023-05-09T16:01:22.881Z,0.50
2023-05-09T16:03:50.317Z,0.50
2023-05-09T16:06:18.011Z,0.45
2023-05-09T16:08:46.630Z,0.40
2023-05-09T16:11:15.068Z,0.60
2023-05-09T16:13:42.190Z,0.52
2023-05-09T16:16:09.451Z,0.60
2023-05-09T16:18:36.826Z,0.45
2023-05-09T16:21:04.285Z,0.57
2023-05-09T16:23:32.827Z,0.40
2023-05-09T16:26:00.051Z,0.50
2023-05-09T16:28:28.568Z,0.70
2023-05-09T16:30:56.105Z,0.57
2023-05-09T16:33:23.615Z,0.30
2023-05-09T16:35:50.865Z,0.30
2023-05-09T16:38:17.983Z,0.30
2023-05-09T16:40:45.487Z,0.38
2023-05-09T16:43:12.586Z,0.30
2023-05-09T16:45:40.554Z,0.30
2023-05-09T16:48:07.930Z,0.40
2023-05-09T16:50:35.328Z,0.40
2023-05-09T16:53:04.308Z,0.40
2023-05-09T16:55:33.647Z,0.40
2023-05-09T16:58:01.338Z,0.28
2023-05-09T17:00:28.603Z,0.30
2023-05-09T17:02:55.936Z,0.30
2023-05-09T17:05:23.273Z,0.25
2023-05-09T17:07:50.656Z,0.30
2023-05-09T17:10:18.364Z,0.20
2023-05-09T17:12:45.705Z,0.13
2023-05-09T17:15:14.352Z,0.10
2023-05-09T17:17:41.655Z,0.10
2023-05-09T17:20:12.097Z,0.60
2023-05-09T17:22:39.795Z,0.20
2023-05-09T17:25:08.083Z,0.20
2023-05-09T17:27:35.259Z,0.28
2023-05-09T17:30:03.194Z,0.30
2023-05-09T17:32:30.516Z,0.30
2023-05-09T17:34:58.261Z,0.22
2023-05-09T17:37:26.325Z,0.30
2023-05-09T17:39:53.830Z,0.20
2023-05-09T17:42:21.269Z,0.20
2023-05-09T17:44:48.609Z,0.20
2023-05-09T17:47:15.789Z,0.10
2023-05-09T17:49:43.714Z,0.10
2023-05-09T17:52:11.024Z,0.10
2023-05-09T17:54:38.202Z,0.20
2023-05-09T17:57:05.466Z,0.30
2023-05-09T17:59:37.736Z,0.10
2023-05-09T18:02:04.869Z,0.10
2023-05-09T18:04:34.614Z,0.10
2023-05-09T18:07:02.060Z,0.20
2023-05-09T18:09:32.206Z,0.20
2023-05-09T18:11:59.484Z,0.20
2023-05-09T18:14:26.670Z,0.20
2023-05-09T18:16:53.981Z,0.20
2023-05-09T18:19:24.059Z,0.20
2023-05-09T18:21:51.361Z,0.30
2023-05-09T18:24:20.907Z,0.10
2023-05-09T18:26:49.508Z,0.30
2023-05-09T18:29:17.652Z,0.30
2023-05-09T18:31:44.846Z,0.30
2023-05-09T18:34:12.077Z,0.20
2023-05-09T18:36:39.090Z,0.20
2023-05-09T18:39:06.086Z,0.20
2023-05-09T18:41:41.899Z,0.20
2023-05-09T18:44:09.007Z,0.20
2023-05-09T18:46:36.114Z,0.40
2023-05-09T18:49:04.419Z,0.57
2023-05-09T18:51:34.284Z,0.60
2023-05-09T18:54:01.252Z,0.57
2023-05-09T18:56:28.422Z,0.70
2023-05-09T18:58:55.445Z,0.40
2023-05-09T19:01:24.596Z,0.40
2023-05-09T19:03:54.577Z,0.40
2023-05-09T19:06:22.154Z,0.63
2023-05-09T19:08:49.164Z,0.40
2023-05-09T19:11:16.637Z,0.45
2023-05-09T19:13:49.012Z,0.60
2023-05-09T19:16:20.174Z,0.50
2023-05-09T19:18:47.436Z,0.40
2023-05-09T19:21:16.027Z,0.40
2023-05-09T19:23:43.204Z,0.40
2023-05-09T19:26:10.378Z,0.30
2023-05-09T19:28:37.494Z,0.40
2023-05-09T19:31:04.763Z,0.32
2023-05-09T19:33:39.036Z,0.40
2023-05-09T19:36:06.953Z,0.38
2023-05-09T19:38:35.412Z,0.68
2023-05-09T19:41:03.002Z,0.55
2023-05-09T19:43:33.234Z,2.03
2023-05-09T19:46:01.799Z,0.60
2023-05-09T19:48:29.321Z,1.67
2023-05-09T19:50:59.915Z,0.75
2023-05-09T19:53:27.691Z,0.90
2023-05-09T19:55:54.875Z,0.70
2023-05-09T19:58:22.068Z,1.30
2023-05-09T20:00:49.609Z,1.00
2023-05-09T20:03:17.023Z,2.13
2023-05-09T20:05:45.632Z,0.90
2023-05-09T20:08:12.895Z,0.95
2023-05-09T20:10:40.511Z,0.85
2023-05-09T20:13:07.721Z,0.68
2023-05-09T20:15:35.777Z,0.70
2023-05-09T20:18:04.741Z,0.80
2023-05-09T20:20:33.188Z,0.70
2023-05-09T20:23:01.913Z,0.70
2023-05-09T20:25:33.900Z,0.63
2023-05-09T20:28:01.819Z,0.60
2023-05-09T20:30:28.992Z,0.60
2023-05-09T20:32:57.175Z,0.60
2023-05-09T20:35:25.037Z,1.35
2023-05-09T20:37:52.026Z,0.70
2023-05-09T20:40:20.723Z,0.88
2023-05-09T20:42:47.676Z,0.70
2023-05-09T20:45:14.664Z,0.80
2023-05-09T20:47:41.643Z,0.47
2023-05-09T20:50:09.292Z,0.60
2023-05-09T20:52:36.366Z,0.60
2023-05-09T20:55:03.626Z,0.60
2023-05-09T20:57:35.601Z,0.73
2023-05-09T21:00:02.566Z,0.50
2023-05-09T21:02:29.903Z,0.60
2023-05-09T21:04:57.115Z,0.57
2023-05-09T21:07:24.019Z,0.55
2023-05-09T21:09:51.115Z,0.57
2023-05-09T21:12:21.312Z,0.90
2023-05-09T21:14:49.327Z,0.50
2023-05-09T21:17:16.551Z,0.60
2023-05-09T21:19:43.609Z,0.70
2023-05-09T21:22:10.594Z,0.80
2023-05-09T21:24:37.515Z,0.73
2023-05-09T21:27:05.226Z,0.70
2023-05-09T21:29:37.620Z,0.70
2023-05-09T21:32:04.732Z,0.70
2023-05-09T21:34:31.742Z,0.70
2023-05-09T21:36:58.682Z,0.70
2023-05-09T21:39:26.076Z,0.80
2023-05-09T21:41:53.113Z,1.05
2023-05-09T21:44:20.067Z,0.90
2023-05-09T21:46:47.078Z,0.80
2023-05-09T21:49:17.018Z,1.05
2023-05-09T21:51:44.001Z,1.10
2023-05-09T21:54:11.251Z,1.20
2023-05-09T21:56:38.292Z,0.90
2023-05-09T21:59:05.323Z,0.80
2023-05-09T22:01:37.269Z,0.70
2023-05-09T22:04:05.702Z,1.00
2023-05-09T22:06:32.914Z,1.10
2023-05-09T22:08:59.804Z,1.13
2023-05-09T22:11:26.851Z,0.90
2023-05-09T22:13:53.847Z,0.90
2023-05-09T22:16:22.683Z,0.98
2023-05-09T22:18:49.742Z,1.40
2023-05-09T22:21:16.641Z,1.10
2023-05-09T22:23:44.106Z,1.20
2023-05-09T22:26:11.347Z,1.40
2023-05-09T22:28:38.531Z,1.05
2023-05-09T22:31:07.025Z,0.90
2023-05-09T22:33:39.228Z,1.08
2023-05-09T22:36:07.265Z,1.27
2023-05-09T22:38:34.257Z,1.35
2023-05-09T22:41:01.215Z,1.40
2023-05-09T22:43:33.866Z,0.98
2023-05-09T22:46:06.093Z,1.20
2023-05-09T22:48:33.180Z,1.05
2023-05-09T22:51:00.145Z,0.90
2023-05-09T22:53:27.059Z,1.08
2023-05-09T22:55:55.022Z,1.15
2023-05-09T22:58:22.819Z,1.10
2023-05-09T23:00:49.953Z,0.85
2023-05-09T23:03:17.736Z,1.50
2023-05-09T23:05:44.809Z,1.13
2023-05-09T23:08:11.828Z,1.05
2023-05-09T23:10:38.706Z,1.15
2023-05-09T23:13:05.756Z,1.65
2023-05-09T23:15:33.021Z,1.00
2023-05-09T23:18:00.350Z,1.08
2023-05-09T23:20:29.626Z,1.05
2023-05-09T23:22:56.696Z,0.90
2023-05-09T23:25:23.920Z,1.10
2023-05-09T23:27:50.907Z,1.23
2023-05-09T23:30:18.309Z,1.02
2023-05-09T23:32:45.410Z,1.00
2023-05-09T23:35:12.407Z,1.25
2023-05-09T23:37:40.002Z,1.40
2023-05-09T23:40:08.030Z,1.25
2023-05-09T23:42:35.252Z,1.23
2023-05-09T23:45:02.410Z,0.80
2023-05-09T23:47:31.609Z,1.08
2023-05-09T23:49:58.830Z,1.40
2023-05-09T23:52:26.363Z,1.35
2023-05-09T23:54:53.598Z,1.45
2023-05-09T23:57:20.678Z,1.05
2023-05-09T23:59:47.870Z,1.13
